createdAt,value
2022-08-23T00:00:13.171Z,29.09
2022-08-23T00:00:35.338Z,29.08
2022-08-23T00:00:57.150Z,29.06
2022-08-23T00:01:26.317Z,29.00
2022-08-23T00:01:53.630Z,29.06
2022-08-23T00:02:23.135Z,29.06
2022-08-23T00:02:46.817Z,29.07
2022-08-23T00:03:08.655Z,29.07
2022-08-23T00:03:31.120Z,29.06
2022-08-23T00:03:55.307Z,29.05
2022-08-23T00:04:22.131Z,29.06
2022-08-23T00:05:07.621Z,29.07
2022-08-23T00:05:31.570Z,29.00
2022-08-23T00:05:53.249Z,29.01
2022-08-23T00:06:14.985Z,29.02
2022-08-23T00:06:39.042Z,28.99
2022-08-23T00:07:01.428Z,28.98
2022-08-23T00:07:23.493Z,29.00
2022-08-23T00:07:45.484Z,29.02
2022-08-23T00:08:07.173Z,29.03
2022-08-23T00:08:30.365Z,29.04
2022-08-23T00:08:53.129Z,29.01
2022-08-23T00:09:15.836Z,29.02
2022-08-23T00:09:38.621Z,28.99
2022-08-23T00:10:01.316Z,28.94
2022-08-23T00:10:23.009Z,28.98
2022-08-23T00:10:44.678Z,28.98
2022-08-23T00:11:23.442Z,28.96
2022-08-23T00:11:47.649Z,28.96
2022-08-23T00:12:15.653Z,28.96
2022-08-23T00:12:37.767Z,28.98
2022-08-23T00:12:59.443Z,28.92
2022-08-23T00:13:21.768Z,28.96
2022-08-23T00:13:47.414Z,28.97
2022-08-23T00:14:12.829Z,28.97
2022-08-23T00:14:38.744Z,28.97
2022-08-23T00:15:00.825Z,28.98
2022-08-23T00:15:23.013Z,28.96
2022-08-23T00:15:44.688Z,28.96
2022-08-23T00:16:07.361Z,28.98
2022-08-23T00:16:29.166Z,28.96
2022-08-23T00:16:51.424Z,28.94
2022-08-23T00:17:31.022Z,28.93
2022-08-23T00:17:56.562Z,28.92
2022-08-23T00:18:20.437Z,28.92
2022-08-23T00:18:42.191Z,28.91
2022-08-23T00:19:14.411Z,28.91
2022-08-23T00:20:20.299Z,28.85
2022-08-23T00:20:42.297Z,28.88
2022-08-23T00:21:05.340Z,28.90
2022-08-23T00:21:29.255Z,28.88
2022-08-23T00:21:52.739Z,28.90
2022-08-23T00:22:15.647Z,28.90
2022-08-23T00:22:41.471Z,28.91
2022-08-23T00:23:03.293Z,28.89
2022-08-23T00:23:25.050Z,28.90
2022-08-23T00:23:46.769Z,28.90
2022-08-23T00:24:11.284Z,28.88
2022-08-23T00:24:38.002Z,28.91
2022-08-23T00:25:02.224Z,28.90
2022-08-23T00:25:23.952Z,28.88
2022-08-23T00:25:45.740Z,28.86
2022-08-23T00:26:09.212Z,28.89
2022-08-23T00:26:54.245Z,28.89
2022-08-23T00:27:17.658Z,28.86
2022-08-23T00:27:40.091Z,28.86
2022-08-23T00:28:03.086Z,28.84
2022-08-23T00:28:24.940Z,28.85
2022-08-23T00:28:48.252Z,28.83
2022-08-23T00:29:10.302Z,28.82
2022-08-23T00:29:35.897Z,28.82
2022-08-23T00:29:57.915Z,28.81
2022-08-23T00:30:20.653Z,28.80
2022-08-23T00:30:43.600Z,28.80
2022-08-23T00:31:06.538Z,28.77
2022-08-23T00:31:28.237Z,28.77
2022-08-23T00:31:50.030Z,28.75
2022-08-23T00:32:15.791Z,28.78
2022-08-23T00:32:38.585Z,28.80
2022-08-23T00:33:00.207Z,28.82
2022-08-23T00:33:21.883Z,28.82
2022-08-23T00:33:44.542Z,28.82
2022-08-23T00:34:06.207Z,28.79
2022-08-23T00:34:28.661Z,28.79
2022-08-23T00:34:51.211Z,28.80
2022-08-23T00:35:26.814Z,28.81
2022-08-23T00:35:48.916Z,28.80
2022-08-23T00:36:10.779Z,28.79
2022-08-23T00:36:32.674Z,28.79
2022-08-23T00:36:55.883Z,28.80
2022-08-23T00:37:18.832Z,28.79
2022-08-23T00:37:41.050Z,28.78
2022-08-23T00:38:30.407Z,28.75
2022-08-23T00:38:45.494Z,28.74
2022-08-23T00:39:07.661Z,28.71
2022-08-23T00:39:29.373Z,28.68
2022-08-23T00:39:51.589Z,28.69
2022-08-23T00:40:17.168Z,28.69
2022-08-23T00:40:39.065Z,28.69
2022-08-23T00:41:00.864Z,28.71
2022-08-23T00:41:22.611Z,28.69
2022-08-23T00:41:46.916Z,28.67
2022-08-23T00:42:27.829Z,28.66
2022-08-23T00:43:12.350Z,28.67
2022-08-23T00:43:55.567Z,28.67
2022-08-23T00:44:42.513Z,28.68
2022-08-23T00:45:23.847Z,28.66
2022-08-23T00:46:10.965Z,28.64
2022-08-23T00:47:00.569Z,28.64
2022-08-23T00:47:41.742Z,28.63
2022-08-23T00:48:06.434Z,28.63
2022-08-23T00:48:28.467Z,28.64
2022-08-23T00:48:51.406Z,28.60
2022-08-23T00:49:15.471Z,28.59
2022-08-23T00:49:39.780Z,28.58
2022-08-23T00:50:23.373Z,28.55
2022-08-23T00:50:52.733Z,28.52
2022-08-23T00:51:19.960Z,28.55
2022-08-23T00:51:53.031Z,28.53
2022-08-23T00:52:22.892Z,28.55
2022-08-23T00:52:54.165Z,28.50
2022-08-23T00:53:20.207Z,28.56
2022-08-23T00:53:46.726Z,28.58
2022-08-23T00:54:10.759Z,28.57
2022-08-23T00:54:35.521Z,28.58
2022-08-23T00:54:58.273Z,28.56
2022-08-23T00:55:21.186Z,28.56
2022-08-23T00:55:47.079Z,28.56
2022-08-23T00:56:12.888Z,28.58
2022-08-23T00:56:36.841Z,28.60
2022-08-23T00:57:02.667Z,28.60
2022-08-23T00:57:24.457Z,28.59
2022-08-23T00:57:47.575Z,28.56
2022-08-23T00:58:09.401Z,28.61
2022-08-23T00:58:32.495Z,28.61
2022-08-23T00:58:54.142Z,28.61
2022-08-23T00:59:19.816Z,28.61
2022-08-23T00:59:42.990Z,28.63
2022-08-23T01:00:08.070Z,28.63
2022-08-23T01:00:30.776Z,28.60
2022-08-23T01:00:56.078Z,28.63
2022-08-23T01:01:18.779Z,28.63
2022-08-23T01:01:42.376Z,28.64
2022-08-23T01:02:07.562Z,28.66
2022-08-23T01:02:31.033Z,28.65
2022-08-23T01:02:53.377Z,28.66
2022-08-23T01:03:15.068Z,28.64
2022-08-23T01:03:41.181Z,28.63
2022-08-23T01:04:05.235Z,28.62
2022-08-23T01:04:31.679Z,28.62
2022-08-23T01:04:58.658Z,28.61
2022-08-23T01:05:25.191Z,28.61
2022-08-23T01:05:53.237Z,28.58
2022-08-23T01:06:19.691Z,28.59
2022-08-23T01:06:47.079Z,28.60
2022-08-23T01:07:15.259Z,28.58
2022-08-23T01:07:47.688Z,28.56
2022-08-23T01:08:09.476Z,28.58
2022-08-23T01:08:34.321Z,28.56
2022-08-23T01:09:01.418Z,28.56
2022-08-23T01:09:24.228Z,28.56
2022-08-23T01:09:48.708Z,28.57
2022-08-23T01:10:21.106Z,28.56
2022-08-23T01:10:48.978Z,28.59
2022-08-23T01:11:16.021Z,28.60
2022-08-23T01:11:42.742Z,28.64
2022-08-23T01:12:08.340Z,28.63
2022-08-23T01:12:36.877Z,28.61
2022-08-23T01:13:08.527Z,28.63
2022-08-23T01:13:38.079Z,28.59
2022-08-23T01:14:05.616Z,28.57
2022-08-23T01:14:32.461Z,28.60
2022-08-23T01:14:59.509Z,28.58
2022-08-23T01:15:26.148Z,28.58
2022-08-23T01:15:53.785Z,28.50
2022-08-23T01:16:21.541Z,28.49
2022-08-23T01:16:50.817Z,28.52
2022-08-23T01:17:19.742Z,28.53
2022-08-23T01:17:46.129Z,28.51
2022-08-23T01:18:10.572Z,28.54
2022-08-23T01:18:33.528Z,28.53
2022-08-23T01:18:57.337Z,28.51
2022-08-23T01:19:27.207Z,28.51
2022-08-23T01:19:57.287Z,28.48
2022-08-23T01:20:27.006Z,28.48
2022-08-23T01:20:54.580Z,28.49
2022-08-23T01:21:24.000Z,28.52
2022-08-23T01:21:53.184Z,28.51
2022-08-23T01:22:25.348Z,28.49
2022-08-23T01:22:52.588Z,28.50
2022-08-23T01:23:25.764Z,28.50
2022-08-23T01:23:50.362Z,28.50
2022-08-23T01:24:19.172Z,28.47
2022-08-23T01:25:06.582Z,28.45
2022-08-23T01:25:33.806Z,28.46
2022-08-23T01:25:56.356Z,28.47
2022-08-23T01:26:21.851Z,28.44
2022-08-23T01:26:45.105Z,28.45
2022-08-23T01:27:07.377Z,28.46
2022-08-23T01:27:29.811Z,28.47
2022-08-23T01:27:53.851Z,28.46
2022-08-23T01:28:18.235Z,28.48
2022-08-23T01:28:40.871Z,28.48
2022-08-23T01:29:08.308Z,28.49
2022-08-23T01:29:30.023Z,28.49
2022-08-23T01:29:52.027Z,28.49
2022-08-23T01:30:17.750Z,28.49
2022-08-23T01:30:43.084Z,28.49
2022-08-23T01:31:06.488Z,28.48
2022-08-23T01:31:29.480Z,28.47
2022-08-23T01:31:52.674Z,28.47
2022-08-23T01:32:14.529Z,28.48
2022-08-23T01:32:41.840Z,28.46
2022-08-23T01:33:06.833Z,28.48
2022-08-23T01:33:31.589Z,28.50
2022-08-23T01:33:58.584Z,28.54
2022-08-23T01:34:26.065Z,28.52
2022-08-23T01:34:51.822Z,28.54
2022-08-23T01:35:16.822Z,28.53
2022-08-23T01:35:41.583Z,28.51
2022-08-23T01:36:04.565Z,28.56
2022-08-23T01:36:32.986Z,28.52
2022-08-23T01:36:57.343Z,28.43
2022-08-23T01:37:21.195Z,28.45
2022-08-23T01:37:44.661Z,28.48
2022-08-23T01:38:06.852Z,28.48
2022-08-23T01:38:32.853Z,28.48
2022-08-23T01:38:55.897Z,28.49
2022-08-23T01:39:17.592Z,28.51
2022-08-23T01:39:39.531Z,28.48
2022-08-23T01:40:02.893Z,28.47
2022-08-23T01:40:24.779Z,28.48
2022-08-23T01:40:47.316Z,28.48
2022-08-23T01:41:10.297Z,28.49
2022-08-23T01:41:31.987Z,28.49
2022-08-23T01:41:54.022Z,28.50
2022-08-23T01:42:15.790Z,28.48
2022-08-23T01:42:41.524Z,28.47
2022-08-23T01:43:05.396Z,28.46
2022-08-23T01:43:27.451Z,28.48
2022-08-23T01:43:51.330Z,28.46
2022-08-23T01:44:14.868Z,28.42
2022-08-23T01:44:36.778Z,28.43
2022-08-23T01:44:58.593Z,28.40
2022-08-23T01:45:20.521Z,28.38
2022-08-23T01:45:43.851Z,28.39
2022-08-23T01:46:09.475Z,28.40
2022-08-23T01:46:32.153Z,28.39
2022-08-23T01:46:55.042Z,28.39
2022-08-23T01:47:20.741Z,28.39
2022-08-23T01:47:43.631Z,28.36
2022-08-23T01:48:05.655Z,28.37
2022-08-23T01:48:27.451Z,28.38
2022-08-23T01:48:51.493Z,28.33
2022-08-23T01:49:14.125Z,28.38
2022-08-23T01:49:36.039Z,28.32
2022-08-23T01:49:57.806Z,28.39
2022-08-23T01:50:21.625Z,28.37
2022-08-23T01:50:43.381Z,28.39
2022-08-23T01:51:05.590Z,28.37
2022-08-23T01:51:27.834Z,28.38
2022-08-23T01:51:49.548Z,28.38
2022-08-23T01:52:12.264Z,28.37
2022-08-23T01:52:34.769Z,28.36
2022-08-23T01:52:56.572Z,28.33
2022-08-23T01:53:19.679Z,28.29
2022-08-23T01:53:47.396Z,28.27
2022-08-23T01:54:09.888Z,28.28
2022-08-23T01:54:31.676Z,28.24
2022-08-23T01:54:54.029Z,28.22
2022-08-23T01:55:17.268Z,28.25
2022-08-23T01:55:40.750Z,28.26
2022-08-23T01:56:04.022Z,28.22
2022-08-23T01:56:38.845Z,28.25
2022-08-23T01:57:06.021Z,28.25
2022-08-23T01:57:29.006Z,28.22
2022-08-23T01:57:54.185Z,28.20
2022-08-23T01:58:17.089Z,28.22
2022-08-23T01:58:38.996Z,28.25
2022-08-23T01:59:00.744Z,28.25
2022-08-23T01:59:27.498Z,28.24
2022-08-23T01:59:50.818Z,28.24
2022-08-23T02:00:13.593Z,28.23
2022-08-23T02:00:38.253Z,28.20
2022-08-23T02:01:01.887Z,28.23
2022-08-23T02:01:24.674Z,28.23
2022-08-23T02:01:49.506Z,28.21
2022-08-23T02:02:12.236Z,28.21
2022-08-23T02:02:34.010Z,28.19
2022-08-23T02:02:56.975Z,28.19
2022-08-23T02:03:19.541Z,28.20
2022-08-23T02:03:41.398Z,28.19
2022-08-23T02:04:05.382Z,28.18
2022-08-23T02:04:28.675Z,28.14
2022-08-23T02:04:50.481Z,28.13
2022-08-23T02:05:12.865Z,28.13
2022-08-23T02:05:40.151Z,28.15
2022-08-23T02:06:02.908Z,28.14
2022-08-23T02:06:24.660Z,28.07
2022-08-23T02:06:46.467Z,28.07
2022-08-23T02:07:13.549Z,28.10
2022-08-23T02:07:37.175Z,28.10
2022-08-23T02:08:19.554Z,28.11
2022-08-23T02:09:00.589Z,28.09
2022-08-23T02:09:25.719Z,28.12
2022-08-23T02:09:51.186Z,28.10
2022-08-23T02:10:13.221Z,28.11
2022-08-23T02:10:34.956Z,28.07
2022-08-23T02:10:56.802Z,28.08
2022-08-23T02:11:22.648Z,28.06
2022-08-23T02:11:46.369Z,28.06
2022-08-23T02:12:08.321Z,28.05
2022-08-23T02:12:30.108Z,28.02
2022-08-23T02:13:02.201Z,28.01
2022-08-23T02:13:25.695Z,27.93
2022-08-23T02:13:47.986Z,27.92
2022-08-23T02:14:13.474Z,27.95
2022-08-23T02:14:43.627Z,27.88
2022-08-23T02:15:14.104Z,27.89
2022-08-23T02:15:39.873Z,27.89
2022-08-23T02:16:01.703Z,27.91
2022-08-23T02:16:28.331Z,27.92
2022-08-23T02:17:03.439Z,27.95
2022-08-23T02:17:27.848Z,27.92
2022-08-23T02:17:49.636Z,27.96
2022-08-23T02:18:11.350Z,27.90
2022-08-23T02:18:37.794Z,27.90
2022-08-23T02:19:02.318Z,27.91
2022-08-23T02:19:24.824Z,27.90
2022-08-23T02:19:47.698Z,27.90
2022-08-23T02:20:10.183Z,27.90
2022-08-23T02:20:31.968Z,27.88
2022-08-23T02:20:54.337Z,27.91
2022-08-23T02:21:16.676Z,27.91
2022-08-23T02:21:40.543Z,27.87
2022-08-23T02:22:08.355Z,27.85
2022-08-23T02:22:30.256Z,27.81
2022-08-23T02:22:51.924Z,27.82
2022-08-23T02:23:14.616Z,27.84
2022-08-23T02:23:36.257Z,27.87
2022-08-23T02:23:58.344Z,27.86
2022-08-23T02:24:22.874Z,27.87
2022-08-23T02:24:48.059Z,27.82
2022-08-23T02:25:10.223Z,27.83
2022-08-23T02:25:31.888Z,27.82
2022-08-23T02:25:53.905Z,27.82
2022-08-23T02:26:16.589Z,27.85
2022-08-23T02:26:42.637Z,27.83
2022-08-23T02:27:09.023Z,27.82
2022-08-23T02:27:35.901Z,27.86
2022-08-23T02:27:57.597Z,27.83
2022-08-23T02:28:19.499Z,27.71
2022-08-23T02:28:41.535Z,27.82
2022-08-23T02:29:04.760Z,27.82
2022-08-23T02:29:29.651Z,27.81
2022-08-23T02:29:52.759Z,27.82
2022-08-23T02:30:15.186Z,27.81
2022-08-23T02:30:39.955Z,27.81
2022-08-23T02:31:04.905Z,27.83
2022-08-23T02:31:27.835Z,27.82
2022-08-23T02:31:50.307Z,27.82
2022-08-23T02:32:15.040Z,27.83
2022-08-23T02:32:36.936Z,27.80
2022-08-23T02:32:59.110Z,27.85
2022-08-23T02:33:22.043Z,27.86
2022-08-23T02:33:43.965Z,27.86
2022-08-23T02:34:07.582Z,27.84
2022-08-23T02:34:31.656Z,27.85
2022-08-23T02:35:05.251Z,27.84
2022-08-23T02:35:29.968Z,27.81
2022-08-23T02:35:51.661Z,27.81
2022-08-23T02:36:13.361Z,27.82
2022-08-23T02:36:35.050Z,27.80
2022-08-23T02:36:58.289Z,27.79
2022-08-23T02:37:20.284Z,27.78
2022-08-23T02:37:42.271Z,27.78
2022-08-23T02:38:04.345Z,27.77
2022-08-23T02:38:27.052Z,27.79
2022-08-23T02:38:49.726Z,27.76
2022-08-23T02:39:12.515Z,27.79
2022-08-23T02:39:34.303Z,27.79
2022-08-23T02:39:57.423Z,27.77
2022-08-23T02:40:20.691Z,27.78
2022-08-23T02:40:42.759Z,27.79
2022-08-23T02:41:04.749Z,27.78
2022-08-23T02:41:27.584Z,27.77
2022-08-23T02:41:51.862Z,27.78
2022-08-23T02:42:14.381Z,27.79
2022-08-23T02:42:38.243Z,27.79
2022-08-23T02:43:00.083Z,27.76
2022-08-23T02:43:24.532Z,27.80
2022-08-23T02:43:46.255Z,27.78
2022-08-23T02:44:10.933Z,27.78
2022-08-23T02:44:34.743Z,27.78
2022-08-23T02:44:59.214Z,27.76
2022-08-23T02:45:21.405Z,27.77
2022-08-23T02:45:43.077Z,27.76
2022-08-23T02:46:06.365Z,27.77
2022-08-23T02:46:29.052Z,27.75
2022-08-23T02:46:51.073Z,27.74
2022-08-23T02:47:12.845Z,27.70
2022-08-23T02:47:40.649Z,27.71
2022-08-23T02:48:10.233Z,27.72
2022-08-23T02:48:52.319Z,27.74
2022-08-23T02:49:14.163Z,27.72
2022-08-23T02:49:36.434Z,27.70
2022-08-23T02:49:59.320Z,27.70
2022-08-23T02:50:21.641Z,27.68
2022-08-23T02:50:43.385Z,27.68
2022-08-23T02:51:07.760Z,27.67
2022-08-23T02:51:30.984Z,27.68
2022-08-23T02:51:53.076Z,27.69
2022-08-23T02:52:15.116Z,27.67
2022-08-23T02:52:37.565Z,27.65
2022-08-23T02:53:00.816Z,27.62
2022-08-23T02:53:22.776Z,27.61
2022-08-23T02:53:45.538Z,27.64
2022-08-23T02:54:07.343Z,27.64
2022-08-23T02:54:30.317Z,27.62
2022-08-23T02:54:53.271Z,27.63
2022-08-23T02:55:21.721Z,27.61
2022-08-23T02:55:46.241Z,27.57
2022-08-23T02:56:21.200Z,27.59
2022-08-23T02:56:44.087Z,27.52
2022-08-23T02:57:06.162Z,27.50
2022-08-23T02:57:31.611Z,27.48
2022-08-23T02:57:54.305Z,27.48
2022-08-23T02:58:16.007Z,27.48
2022-08-23T02:58:38.226Z,27.46
2022-08-23T02:59:01.168Z,27.45
2022-08-23T02:59:23.014Z,27.48
2022-08-23T02:59:44.665Z,27.52
2022-08-23T03:00:09.727Z,27.49
2022-08-23T03:00:32.811Z,27.52
2022-08-23T03:00:54.512Z,27.52
2022-08-23T03:01:19.045Z,27.57
2022-08-23T03:01:41.461Z,27.56
2022-08-23T03:02:36.606Z,27.58
2022-08-23T03:02:58.367Z,27.57
2022-08-23T03:03:22.712Z,27.56
2022-08-23T03:03:45.743Z,27.52
2022-08-23T03:04:10.931Z,27.58
2022-08-23T03:04:32.678Z,27.59
2022-08-23T03:04:54.633Z,27.60
2022-08-23T03:05:16.842Z,27.61
2022-08-23T03:05:39.554Z,27.62
2022-08-23T03:06:24.851Z,27.59
2022-08-23T03:06:43.744Z,27.61
2022-08-23T03:07:06.586Z,27.61
2022-08-23T03:07:28.777Z,27.62
2022-08-23T03:07:50.620Z,27.61
2022-08-23T03:08:13.006Z,27.60
2022-08-23T03:08:42.225Z,27.62
2022-08-23T03:09:05.830Z,27.62
2022-08-23T03:09:27.635Z,27.62
2022-08-23T03:09:49.373Z,27.63
2022-08-23T03:10:11.991Z,27.63
2022-08-23T03:10:45.213Z,27.63
2022-08-23T03:11:11.885Z,27.62
2022-08-23T03:11:34.988Z,27.63
2022-08-23T03:11:57.710Z,27.63
2022-08-23T03:12:19.398Z,27.64
2022-08-23T03:12:44.540Z,27.64
2022-08-23T03:13:06.225Z,27.63
2022-08-23T03:13:28.913Z,27.63
2022-08-23T03:13:53.204Z,27.66
2022-08-23T03:14:15.047Z,27.67
2022-08-23T03:14:37.948Z,27.66
2022-08-23T03:15:00.121Z,27.65
2022-08-23T03:15:22.833Z,27.63
2022-08-23T03:15:45.152Z,27.62
2022-08-23T03:16:08.299Z,27.64
2022-08-23T03:16:30.326Z,27.64
2022-08-23T03:16:52.967Z,27.65
2022-08-23T03:17:18.152Z,27.61
2022-08-23T03:17:40.013Z,27.61
2022-08-23T03:18:05.201Z,27.55
2022-08-23T03:18:26.877Z,27.53
2022-08-23T03:18:49.576Z,27.54
2022-08-23T03:19:11.394Z,27.55
2022-08-23T03:19:34.465Z,27.59
2022-08-23T03:19:56.213Z,27.57
2022-08-23T03:20:19.729Z,27.59
2022-08-23T03:20:43.660Z,27.60
2022-08-23T03:21:09.666Z,27.61
2022-08-23T03:21:32.482Z,27.60
2022-08-23T03:21:54.440Z,27.58
2022-08-23T03:22:16.433Z,27.59
2022-08-23T03:22:39.075Z,27.59
2022-08-23T03:23:00.968Z,27.58
2022-08-23T03:23:22.650Z,27.54
2022-08-23T03:23:44.624Z,27.56
2022-08-23T03:24:10.373Z,27.53
2022-08-23T03:24:33.511Z,27.52
2022-08-23T03:24:55.279Z,27.55
2022-08-23T03:25:24.344Z,27.52
2022-08-23T03:26:01.935Z,27.54
2022-08-23T03:26:24.864Z,27.56
2022-08-23T03:26:47.590Z,27.55
2022-08-23T03:27:11.832Z,27.56
2022-08-23T03:27:38.274Z,27.56
2022-08-23T03:28:07.328Z,27.58
2022-08-23T03:28:34.808Z,27.53
2022-08-23T03:28:57.409Z,27.49
2022-08-23T03:29:23.239Z,27.47
2022-08-23T03:29:54.779Z,27.45
2022-08-23T03:30:19.630Z,27.45
2022-08-23T03:30:46.720Z,27.43
2022-08-23T03:31:09.790Z,27.45
2022-08-23T03:31:42.437Z,27.43
2022-08-23T03:32:07.561Z,27.42
2022-08-23T03:32:32.309Z,27.41
2022-08-23T03:32:55.318Z,27.40
2022-08-23T03:33:17.233Z,27.41
2022-08-23T03:33:42.318Z,27.42
2022-08-23T03:34:05.389Z,27.39
2022-08-23T03:34:27.479Z,27.33
2022-08-23T03:34:49.488Z,27.34
2022-08-23T03:35:15.231Z,27.36
2022-08-23T03:35:37.223Z,27.34
2022-08-23T03:36:00.436Z,27.33
2022-08-23T03:36:27.919Z,27.33
2022-08-23T03:36:51.251Z,27.31
2022-08-23T03:37:13.284Z,27.25
2022-08-23T03:37:35.037Z,27.32
2022-08-23T03:38:04.096Z,27.32
2022-08-23T03:38:25.885Z,27.34
2022-08-23T03:38:47.626Z,27.36
2022-08-23T03:39:09.351Z,27.37
2022-08-23T03:39:32.268Z,27.33
2022-08-23T03:39:55.218Z,27.37
2022-08-23T03:40:17.027Z,27.36
2022-08-23T03:40:38.826Z,27.35
2022-08-23T03:41:02.952Z,27.34
2022-08-23T03:41:25.180Z,27.35
2022-08-23T03:41:47.295Z,27.37
2022-08-23T03:42:09.170Z,27.39
2022-08-23T03:42:33.236Z,27.41
2022-08-23T03:42:55.003Z,27.40
2022-08-23T03:43:19.493Z,27.36
2022-08-23T03:43:41.204Z,27.40
2022-08-23T03:44:04.003Z,27.41
2022-08-23T03:44:30.219Z,27.38
2022-08-23T03:44:54.738Z,27.40
2022-08-23T03:45:24.082Z,27.40
2022-08-23T03:45:46.607Z,27.41
2022-08-23T03:46:09.621Z,27.38
2022-08-23T03:46:34.478Z,27.40
2022-08-23T03:46:56.722Z,27.39
2022-08-23T03:47:20.335Z,27.40
2022-08-23T03:47:46.660Z,27.42
2022-08-23T03:48:08.744Z,27.44
2022-08-23T03:48:31.580Z,27.44
2022-08-23T03:48:55.342Z,27.42
2022-08-23T03:49:19.972Z,27.44
2022-08-23T03:49:47.419Z,27.44
2022-08-23T03:50:09.514Z,27.43
2022-08-23T03:50:32.415Z,27.41
2022-08-23T03:50:54.947Z,27.41
2022-08-23T03:51:19.006Z,27.35
2022-08-23T03:51:41.128Z,27.29
2022-08-23T03:52:03.594Z,27.27
2022-08-23T03:52:26.840Z,27.27
2022-08-23T03:52:48.824Z,27.28
2022-08-23T03:53:12.920Z,27.27
2022-08-23T03:53:36.310Z,27.22
2022-08-23T03:54:00.897Z,27.25
2022-08-23T03:54:23.048Z,27.25
2022-08-23T03:54:47.865Z,27.23
2022-08-23T03:55:09.921Z,27.26
2022-08-23T03:55:34.776Z,27.27
2022-08-23T03:56:06.039Z,27.28
2022-08-23T03:56:30.917Z,27.27
2022-08-23T03:56:55.807Z,27.28
2022-08-23T03:57:18.869Z,27.31
2022-08-23T03:57:41.068Z,27.26
2022-08-23T03:58:04.222Z,27.25
2022-08-23T03:58:27.858Z,27.28
2022-08-23T03:58:50.189Z,27.28
2022-08-23T03:59:12.169Z,27.29
2022-08-23T03:59:35.551Z,27.30
2022-08-23T04:00:00.744Z,27.30
2022-08-23T04:00:24.563Z,27.30
2022-08-23T04:00:49.127Z,27.30
2022-08-23T04:01:10.948Z,27.29
2022-08-23T04:01:34.495Z,27.28
2022-08-23T04:01:56.368Z,27.21
2022-08-23T04:02:18.470Z,27.22
2022-08-23T04:02:40.653Z,27.25
2022-08-23T04:03:06.092Z,27.23
2022-08-23T04:03:37.119Z,27.25
2022-08-23T04:04:00.094Z,27.25
2022-08-23T04:04:23.507Z,27.24
2022-08-23T04:05:10.909Z,27.25
2022-08-23T04:05:51.164Z,27.25
2022-08-23T04:06:15.501Z,27.27
2022-08-23T04:06:37.649Z,27.25
2022-08-23T04:07:00.489Z,27.27
2022-08-23T04:07:22.648Z,27.29
2022-08-23T04:07:48.490Z,27.26
2022-08-23T04:08:11.296Z,27.24
2022-08-23T04:08:37.265Z,27.29
2022-08-23T04:09:00.206Z,27.28
2022-08-23T04:09:22.524Z,27.30
2022-08-23T04:09:44.562Z,27.32
2022-08-23T04:10:13.650Z,27.33
2022-08-23T04:10:35.496Z,27.32
2022-08-23T04:10:57.962Z,27.32
2022-08-23T04:11:21.834Z,27.27
2022-08-23T04:11:52.521Z,27.25
2022-08-23T04:12:17.690Z,27.25
2022-08-23T04:12:39.954Z,27.27
2022-08-23T04:13:08.965Z,27.29
2022-08-23T04:13:32.098Z,27.28
2022-08-23T04:13:56.519Z,27.30
2022-08-23T04:14:18.639Z,27.28
2022-08-23T04:14:40.582Z,27.26
2022-08-23T04:15:03.356Z,27.27
2022-08-23T04:15:29.445Z,27.24
2022-08-23T04:15:51.160Z,27.28
2022-08-23T04:16:13.908Z,27.26
2022-08-23T04:16:37.694Z,27.30
2022-08-23T04:17:00.774Z,27.33
2022-08-23T04:17:22.583Z,27.30
2022-08-23T04:17:45.740Z,27.31
2022-08-23T04:18:07.473Z,27.30
2022-08-23T04:18:32.004Z,27.29
2022-08-23T04:18:54.697Z,27.28
2022-08-23T04:19:18.050Z,27.28
2022-08-23T04:19:53.773Z,27.29
2022-08-23T04:20:15.864Z,27.24
2022-08-23T04:20:52.630Z,27.26
2022-08-23T04:21:19.942Z,27.26
2022-08-23T04:21:45.555Z,27.26
2022-08-23T04:22:12.587Z,27.22
2022-08-23T04:22:36.743Z,27.22
2022-08-23T04:22:58.726Z,27.21
2022-08-23T04:23:22.708Z,27.22
2022-08-23T04:23:48.126Z,27.16
2022-08-23T04:24:11.005Z,27.15
2022-08-23T04:24:32.878Z,27.17
2022-08-23T04:24:55.934Z,27.18
2022-08-23T04:25:34.371Z,27.19
2022-08-23T04:25:58.075Z,27.18
2022-08-23T04:26:23.066Z,27.20
2022-08-23T04:26:49.471Z,27.20
2022-08-23T04:27:12.973Z,27.18
2022-08-23T04:27:35.936Z,27.17
2022-08-23T04:27:57.783Z,27.17
2022-08-23T04:28:20.409Z,27.19
2022-08-23T04:28:42.398Z,27.16
2022-08-23T04:29:05.065Z,27.15
2022-08-23T04:29:33.972Z,27.10
2022-08-23T04:29:56.674Z,27.10
2022-08-23T04:30:21.013Z,27.10
2022-08-23T04:30:45.685Z,27.04
2022-08-23T04:31:09.273Z,27.09
2022-08-23T04:31:34.678Z,27.10
2022-08-23T04:31:58.678Z,27.11
2022-08-23T04:32:28.143Z,27.13
2022-08-23T04:32:51.580Z,27.15
2022-08-23T04:33:17.418Z,27.16
2022-08-23T04:33:40.968Z,27.16
2022-08-23T04:34:06.132Z,27.17
2022-08-23T04:34:28.924Z,27.18
2022-08-23T04:34:52.005Z,27.16
2022-08-23T04:35:14.187Z,27.21
2022-08-23T04:35:35.864Z,27.19
2022-08-23T04:35:58.146Z,27.21
2022-08-23T04:36:23.385Z,27.22
2022-08-23T04:36:50.031Z,27.23
2022-08-23T04:37:17.788Z,27.23
2022-08-23T04:37:39.692Z,27.25
2022-08-23T04:38:03.149Z,27.23
2022-08-23T04:38:39.747Z,27.24
2022-08-23T04:39:03.151Z,27.26
2022-08-23T04:39:25.155Z,27.29
2022-08-23T04:40:05.690Z,27.32
2022-08-23T04:40:52.870Z,27.33
2022-08-23T04:41:33.799Z,27.32
2022-08-23T04:42:19.297Z,27.35
2022-08-23T04:42:44.445Z,27.34
2022-08-23T04:43:08.673Z,27.32
2022-08-23T04:43:30.727Z,27.33
2022-08-23T04:43:52.500Z,27.33
2022-08-23T04:44:15.831Z,27.31
2022-08-23T04:44:38.212Z,27.34
2022-08-23T04:45:01.383Z,27.31
2022-08-23T04:45:23.920Z,27.33
2022-08-23T04:45:48.973Z,27.35
2022-08-23T04:46:22.066Z,27.35
2022-08-23T04:46:44.586Z,27.32
2022-08-23T04:47:07.052Z,27.30
2022-08-23T04:47:29.913Z,27.27
2022-08-23T04:47:55.473Z,27.28
2022-08-23T04:48:17.324Z,27.25
2022-08-23T04:48:44.433Z,27.28
2022-08-23T04:49:07.464Z,27.29
2022-08-23T04:49:29.383Z,27.29
2022-08-23T04:49:51.640Z,27.27
2022-08-23T04:50:13.475Z,27.32
2022-08-23T04:50:54.623Z,27.30
2022-08-23T04:51:17.116Z,27.32
2022-08-23T04:51:39.196Z,27.30
2022-08-23T04:52:01.897Z,27.29
2022-08-23T04:52:25.511Z,27.33
2022-08-23T04:52:47.326Z,27.30
2022-08-23T04:53:09.183Z,27.27
2022-08-23T04:53:39.308Z,27.28
2022-08-23T04:54:25.119Z,27.28
2022-08-23T04:55:06.755Z,27.24
2022-08-23T04:55:40.795Z,27.29
2022-08-23T04:56:04.898Z,27.27
2022-08-23T04:56:27.899Z,27.25
2022-08-23T04:56:51.812Z,27.26
2022-08-23T04:57:16.672Z,27.26
2022-08-23T04:57:42.449Z,27.23
2022-08-23T04:58:06.103Z,27.19
2022-08-23T04:58:35.075Z,27.15
2022-08-23T04:58:58.539Z,27.21
2022-08-23T04:59:21.229Z,27.20
2022-08-23T04:59:43.200Z,27.23
2022-08-23T05:00:06.661Z,27.22
2022-08-23T05:00:30.390Z,27.25
2022-08-23T05:00:53.412Z,27.25
2022-08-23T05:01:25.456Z,27.24
2022-08-23T05:01:50.669Z,27.23
2022-08-23T05:02:13.179Z,27.23
2022-08-23T05:02:34.908Z,27.26
2022-08-23T05:02:56.619Z,27.26
2022-08-23T05:03:19.877Z,27.25
2022-08-23T05:03:43.459Z,27.26
2022-08-23T05:04:05.840Z,27.27
2022-08-23T05:04:29.920Z,27.28
2022-08-23T05:04:52.242Z,27.30
2022-08-23T05:05:16.471Z,27.30
2022-08-23T05:05:41.795Z,27.32
2022-08-23T05:06:05.042Z,27.31
2022-08-23T05:06:32.992Z,27.35
2022-08-23T05:06:55.632Z,27.37
2022-08-23T05:07:17.350Z,27.38
2022-08-23T05:07:42.689Z,27.40
2022-08-23T05:08:05.628Z,27.36
2022-08-23T05:08:29.154Z,27.35
2022-08-23T05:08:51.196Z,27.32
2022-08-23T05:09:17.232Z,27.34
2022-08-23T05:09:42.442Z,27.28
2022-08-23T05:10:07.087Z,27.28
2022-08-23T05:10:28.773Z,27.29
2022-08-23T05:10:51.016Z,27.26
2022-08-23T05:11:13.137Z,27.30
2022-08-23T05:11:37.029Z,27.28
2022-08-23T05:11:59.038Z,27.29
2022-08-23T05:12:22.978Z,27.32
2022-08-23T05:12:46.144Z,27.30
2022-08-23T05:13:08.179Z,27.29
2022-08-23T05:13:31.413Z,27.30
2022-08-23T05:13:58.379Z,27.30
2022-08-23T05:14:20.085Z,27.29
2022-08-23T05:14:41.856Z,27.30
2022-08-23T05:15:11.962Z,27.23
2022-08-23T05:15:38.386Z,27.28
2022-08-23T05:16:00.524Z,27.28
2022-08-23T05:16:27.831Z,27.30
2022-08-23T05:16:55.241Z,27.27
2022-08-23T05:17:17.727Z,27.29
2022-08-23T05:17:39.652Z,27.21
2022-08-23T05:18:02.999Z,27.21
2022-08-23T05:18:26.531Z,27.22
2022-08-23T05:18:48.464Z,27.23
2022-08-23T05:19:11.141Z,27.23
2022-08-23T05:19:39.403Z,27.25
2022-08-23T05:20:08.348Z,27.21